sensor_id;sensor_type;location;lat;lon;timestamp;temperature;humidity
35603;DHT22;21725;50.836;4.368;2023-01-13T01:29:44;11.40;99.90
35603;DHT22;21725;50.836;4.368;2023-01-13T01:33:06;11.40;99.90
35603;DHT22;21725;50.836;4.368;2023-01-13T01:48:16;11.20;99.90
35603;DHT22;21725;50.836;4.368;2023-01-13T01:52:28;10.80;99.90
35603;DHT22;21725;50.836;4.368;2023-01-13T01:55:57;11.10;99.90
35603;DHT22;21725;50.836;4.368;2023-01-13T01:59:15;11.20;99.90
35603;DHT22;21725;50.836;4.368;2023-01-13T02:02:21;10.70;99.90
35603;DHT22;21725;50.836;4.368;2023-01-13T02:09:47;11.60;99.90
35603;DHT22;21725;50.836;4.368;2023-01-13T02:33:05;9.80;99.90
35603;DHT22;21725;50.836;4.368;2023-01-13T02:40:48;10.50;99.90
35603;DHT22;21725;50.836;4.368;2023-01-13T02:47:51;10.70;99.90
35603;DHT22;21725;50.836;4.368;2023-01-13T02:59:27;10.90;99.90
35603;DHT22;21725;50.836;4.368;2023-01-13T03:03:01;10.70;99.90
35603;DHT22;21725;50.836;4.368;2023-01-13T03:06:40;10.70;99.90
35603;DHT22;21725;50.836;4.368;2023-01-13T04:59:14;10.80;99.90
35603;DHT22;21725;50.836;4.368;2023-01-13T08:50:02;10.10;99.90
35603;DHT22;21725;50.836;4.368;2023-01-13T08:57:44;10.20;99.90
35603;DHT22;21725;50.836;4.368;2023-01-13T09:01:05;9.90;99.90
35603;DHT22;21725;50.836;4.368;2023-01-13T09:04:41;10.40;99.90
35603;DHT22;21725;50.836;4.368;2023-01-13T09:12:12;10.00;99.90
35603;DHT22;21725;50.836;4.368;2023-01-13T09:19:59;10.10;99.90
35603;DHT22;21725;50.836;4.368;2023-01-13T09:23:16;10.40;99.90
35603;DHT22;21725;50.836;4.368;2023-01-13T09:30:50;10.30;99.90
35603;DHT22;21725;50.836;4.368;2023-01-13T09:34:19;10.30;99.90
35603;DHT22;21725;50.836;4.368;2023-01-13T09:37:47;10.70;99.90
35603;DHT22;21725;50.836;4.368;2023-01-13T09:40:59;10.60;99.90
35603;DHT22;21725;50.836;4.368;2023-01-13T09:59:56;10.80;99.90
35603;DHT22;21725;50.836;4.368;2023-01-13T10:03:34;10.80;99.90
35603;DHT22;21725;50.836;4.368;2023-01-13T10:34:08;11.10;99.90
35603;DHT22;21725;50.836;4.368;2023-01-13T12:02:02;12.00;99.90
35603;DHT22;21725;50.836;4.368;2023-01-13T12:05:36;11.80;99.90
35603;DHT22;21725;50.836;4.368;2023-01-13T12:21:37;11.50;99.90
35603;DHT22;21725;50.836;4.368;2023-01-13T12:45:37;11.40;99.90
35603;DHT22;21725;50.836;4.368;2023-01-13T12:52:53;11.60;99.90
35603;DHT22;21725;50.836;4.368;2023-01-13T13:04:19;11.60;99.90
35603;DHT22;21725;50.836;4.368;2023-01-13T13:08:02;11.50;99.90
35603;DHT22;21725;50.836;4.368;2023-01-13T13:11:33;11.70;99.90
35603;DHT22;21725;50.836;4.368;2023-01-13T13:18:25;11.70;99.90
35603;DHT22;21725;50.836;4.368;2023-01-13T13:36:07;11.60;99.90
35603;DHT22;21725;50.836;4.368;2023-01-13T13:58:48;12.20;99.90
35603;DHT22;21725;50.836;4.368;2023-01-13T14:02:45;11.90;99.90
35603;DHT22;21725;50.836;4.368;2023-01-13T14:14:44;12.20;99.80
35603;DHT22;21725;50.836;4.368;2023-01-13T14:22:52;12.20;99.80
35603;DHT22;21725;50.836;4.368;2023-01-13T14:26:15;12.00;99.90
35603;DHT22;21725;50.836;4.368;2023-01-13T14:30:05;11.80;99.90
35603;DHT22;21725;50.836;4.368;2023-01-13T14:33:34;12.40;99.90
35603;DHT22;21725;50.836;4.368;2023-01-13T14:44:02;12.30;99.90
35603;DHT22;21725;50.836;4.368;2023-01-13T14:47:32;12.40;99.40
35603;DHT22;21725;50.836;4.368;2023-01-13T14:50:55;11.80;99.40
35603;DHT22;21725;50.836;4.368;2023-01-13T15:01:47;11.50;99.70
35603;DHT22;21725;50.836;4.368;2023-01-13T15:15:35;11.30;99.40
35603;DHT22;21725;50.836;4.368;2023-01-13T15:18:41;11.60;99.30
35603;DHT22;21725;50.836;4.368;2023-01-13T15:21:41;11.70;99.40
35603;DHT22;21725;50.836;4.368;2023-01-13T15:24:42;11.90;99.10
35603;DHT22;21725;50.836;4.368;2023-01-13T15:27:44;11.70;98.90
35603;DHT22;21725;50.836;4.368;2023-01-13T15:30:46;11.60;99.30
35603;DHT22;21725;50.836;4.368;2023-01-13T15:33:47;11.60;99.30
35603;DHT22;21725;50.836;4.368;2023-01-13T15:36:48;11.50;99.30
35603;DHT22;21725;50.836;4.368;2023-01-13T15:39:49;11.40;99.60
35603;DHT22;21725;50.836;4.368;2023-01-13T15:42:50;11.50;99.40
35603;DHT22;21725;50.836;4.368;2023-01-13T15:46:12;11.40;99.40
35603;DHT22;21725;50.836;4.368;2023-01-13T15:49:41;11.30;99.60
35603;DHT22;21725;50.836;4.368;2023-01-13T15:52:42;11.20;99.60
35603;DHT22;21725;50.836;4.368;2023-01-13T15:55:48;11.10;99.80
35603;DHT22;21725;50.836;4.368;2023-01-13T15:58:50;11.00;99.90
35603;DHT22;21725;50.836;4.368;2023-01-13T16:01:51;11.00;99.90
35603;DHT22;21725;50.836;4.368;2023-01-13T16:04:52;11.10;99.90
35603;DHT22;21725;50.836;4.368;2023-01-13T16:07:55;11.10;99.90
35603;DHT22;21725;50.836;4.368;2023-01-13T16:10:56;10.70;99.80
35603;DHT22;21725;50.836;4.368;2023-01-13T16:13:57;11.20;99.90
35603;DHT22;21725;50.836;4.368;2023-01-13T16:16:58;11.20;99.90
35603;DHT22;21725;50.836;4.368;2023-01-13T16:19:59;11.00;99.90
35603;DHT22;21725;50.836;4.368;2023-01-13T16:22:59;11.00;99.90
35603;DHT22;21725;50.836;4.368;2023-01-13T16:26:03;10.90;99.90
35603;DHT22;21725;50.836;4.368;2023-01-13T16:29:04;10.90;99.90
35603;DHT22;21725;50.836;4.368;2023-01-13T16:32:09;10.90;99.90
35603;DHT22;21725;50.836;4.368;2023-01-13T16:35:10;10.50;99.90
35603;DHT22;21725;50.836;4.368;2023-01-13T16:38:15;10.90;99.90
35603;DHT22;21725;50.836;4.368;2023-01-13T16:41:17;11.00;99.90
35603;DHT22;21725;50.836;4.368;2023-01-13T16:44:18;10.90;99.90
35603;DHT22;21725;50.836;4.368;2023-01-13T16:47:19;10.90;99.90
35603;DHT22;21725;50.836;4.368;2023-01-13T16:50:31;10.90;99.90
35603;DHT22;21725;50.836;4.368;2023-01-13T16:53:33;11.00;99.90
35603;DHT22;21725;50.836;4.368;2023-01-13T16:56:35;10.90;99.90
35603;DHT22;21725;50.836;4.368;2023-01-13T16:59:36;10.90;99.90
35603;DHT22;21725;50.836;4.368;2023-01-13T17:23:48;8.50;99.90
35603;DHT22;21725;50.836;4.368;2023-01-13T17:26:50;8.70;99.90
35603;DHT22;21725;50.836;4.368;2023-01-13T17:29:51;9.50;99.90
35603;DHT22;21725;50.836;4.368;2023-01-13T17:32:51;10.10;99.90
35603;DHT22;21725;50.836;4.368;2023-01-13T17:35:52;10.50;99.90
35603;DHT22;21725;50.836;4.368;2023-01-13T17:38:54;10.80;99.90
35603;DHT22;21725;50.836;4.368;2023-01-13T17:41:54;10.90;99.90
35603;DHT22;21725;50.836;4.368;2023-01-13T17:44:55;11.00;99.90
35603;DHT22;21725;50.836;4.368;2023-01-13T17:47:56;11.10;99.90
35603;DHT22;21725;50.836;4.368;2023-01-13T17:50:57;11.20;99.90
35603;DHT22;21725;50.836;4.368;2023-01-13T17:53:58;11.20;99.90
35603;DHT22;21725;50.836;4.368;2023-01-13T17:56:58;11.30;99.90
35603;DHT22;21725;50.836;4.368;2023-01-13T17:59:59;11.30;99.90
35603;DHT22;21725;50.836;4.368;2023-01-13T18:03:00;11.30;99.90
35603;DHT22;21725;50.836;4.368;2023-01-13T18:06:05;11.30;99.90
35603;DHT22;21725;50.836;4.368;2023-01-13T18:09:07;11.20;99.90
35603;DHT22;21725;50.836;4.368;2023-01-13T18:12:07;11.10;99.90
35603;DHT22;21725;50.836;4.368;2023-01-13T18:15:08;11.10;99.90
35603;DHT22;21725;50.836;4.368;2023-01-13T18:18:09;11.20;99.90
35603;DHT22;21725;50.836;4.368;2023-01-13T18:21:21;10.90;99.90
35603;DHT22;21725;50.836;4.368;2023-01-13T18:24:41;10.80;99.90
35603;DHT22;21725;50.836;4.368;2023-01-13T18:28:00;10.70;99.90
35603;DHT22;21725;50.836;4.368;2023-01-13T18:31:09;10.90;99.90
35603;DHT22;21725;50.836;4.368;2023-01-13T18:34:10;11.00;99.90
35603;DHT22;21725;50.836;4.368;2023-01-13T18:37:13;11.00;99.90
35603;DHT22;21725;50.836;4.368;2023-01-13T18:40:17;11.10;99.90
35603;DHT22;21725;50.836;4.368;2023-01-13T18:43:21;11.00;99.90
35603;DHT22;21725;50.836;4.368;2023-01-13T18:46:22;10.90;99.90
35603;DHT22;21725;50.836;4.368;2023-01-13T18:49:22;10.80;99.90
35603;DHT22;21725;50.836;4.368;2023-01-13T18:52:26;10.70;99.90
35603;DHT22;21725;50.836;4.368;2023-01-13T18:55:28;10.40;99.90
35603;DHT22;21725;50.836;4.368;2023-01-13T18:58:28;10.60;99.90
35603;DHT22;21725;50.836;4.368;2023-01-13T19:01:29;10.60;99.90
35603;DHT22;21725;50.836;4.368;2023-01-13T19:04:30;10.80;99.90
35603;DHT22;21725;50.836;4.368;2023-01-13T19:07:32;10.80;99.90
35603;DHT22;21725;50.836;4.368;2023-01-13T19:10:34;10.60;99.90
35603;DHT22;21725;50.836;4.368;2023-01-13T19:13:45;10.60;99.90
35603;DHT22;21725;50.836;4.368;2023-01-13T19:16:46;10.50;99.90
35603;DHT22;21725;50.836;4.368;2023-01-13T19:19:49;10.50;99.90
35603;DHT22;21725;50.836;4.368;2023-01-13T19:22:50;10.50;99.90
35603;DHT22;21725;50.836;4.368;2023-01-13T19:25:53;10.50;99.90
35603;DHT22;21725;50.836;4.368;2023-01-13T19:28:54;10.40;99.90
35603;DHT22;21725;50.836;4.368;2023-01-13T19:31:55;10.30;99.90
35603;DHT22;21725;50.836;4.368;2023-01-13T19:34:56;10.30;99.90
35603;DHT22;21725;50.836;4.368;2023-01-13T19:37:58;10.30;99.90
35603;DHT22;21725;50.836;4.368;2023-01-13T19:41:01;10.20;99.90
35603;DHT22;21725;50.836;4.368;2023-01-13T19:44:05;10.10;99.90
35603;DHT22;21725;50.836;4.368;2023-01-13T19:47:24;10.20;99.90
35603;DHT22;21725;50.836;4.368;2023-01-13T19:50:25;10.20;99.90
35603;DHT22;21725;50.836;4.368;2023-01-13T19:53:26;10.20;99.90
35603;DHT22;21725;50.836;4.368;2023-01-13T19:56:27;10.20;99.90
35603;DHT22;21725;50.836;4.368;2023-01-13T19:59:28;10.10;99.90
35603;DHT22;21725;50.836;4.368;2023-01-13T20:02:29;10.10;99.90
35603;DHT22;21725;50.836;4.368;2023-01-13T20:05:34;10.10;99.90
35603;DHT22;21725;50.836;4.368;2023-01-13T20:08:35;10.00;99.90
35603;DHT22;21725;50.836;4.368;2023-01-13T20:11:36;10.00;99.90
35603;DHT22;21725;50.836;4.368;2023-01-13T20:14:36;9.90;99.90
35603;DHT22;21725;50.836;4.368;2023-01-13T20:17:37;10.00;99.90
35603;DHT22;21725;50.836;4.368;2023-01-13T20:20:38;10.10;99.90
35603;DHT22;21725;50.836;4.368;2023-01-13T20:23:39;10.20;99.90
35603;DHT22;21725;50.836;4.368;2023-01-13T20:26:47;10.10;99.90
35603;DHT22;21725;50.836;4.368;2023-01-13T20:29:47;10.10;99.90
35603;DHT22;21725;50.836;4.368;2023-01-13T20:32:48;10.10;99.90
35603;DHT22;21725;50.836;4.368;2023-01-13T20:35:56;10.20;99.90
35603;DHT22;21725;50.836;4.368;2023-01-13T20:38:58;10.20;99.90
35603;DHT22;21725;50.836;4.368;2023-01-13T20:41:59;10.20;99.90
35603;DHT22;21725;50.836;4.368;2023-01-13T20:45:18;10.30;99.90
35603;DHT22;21725;50.836;4.368;2023-01-13T20:48:21;10.40;99.90
35603;DHT22;21725;50.836;4.368;2023-01-13T20:51:21;10.30;99.90
35603;DHT22;21725;50.836;4.368;2023-01-13T20:54:22;10.20;99.90
35603;DHT22;21725;50.836;4.368;2023-01-13T20:57:23;10.10;99.90
35603;DHT22;21725;50.836;4.368;2023-01-13T21:00:24;10.00;99.90
35603;DHT22;21725;50.836;4.368;2023-01-13T21:09:48;9.90;99.90
35603;DHT22;21725;50.836;4.368;2023-01-13T21:12:49;10.00;99.90
35603;DHT22;21725;50.836;4.368;2023-01-13T21:16:10;10.10;99.90
35603;DHT22;21725;50.836;4.368;2023-01-13T21:19:15;10.10;99.90
35603;DHT22;21725;50.836;4.368;2023-01-13T21:22:18;10.00;99.90
35603;DHT22;21725;50.836;4.368;2023-01-13T21:25:23;10.10;99.90
35603;DHT22;21725;50.836;4.368;2023-01-13T21:31:46;10.10;99.90
35603;DHT22;21725;50.836;4.368;2023-01-13T21:34:47;10.20;99.90
35603;DHT22;21725;50.836;4.368;2023-01-13T21:37:48;10.10;99.90
35603;DHT22;21725;50.836;4.368;2023-01-13T21:41:01;10.00;99.90
35603;DHT22;21725;50.836;4.368;2023-01-13T21:44:15;10.20;99.90
35603;DHT22;21725;50.836;4.368;2023-01-13T21:47:34;10.50;99.90
35603;DHT22;21725;50.836;4.368;2023-01-13T22:06:07;10.20;99.90
35603;DHT22;21725;50.836;4.368;2023-01-13T22:09:51;9.50;99.90
35603;DHT22;21725;50.836;4.368;2023-01-13T22:13:30;9.90;99.90
35603;DHT22;21725;50.836;4.368;2023-01-13T22:17:26;9.90;99.90
35603;DHT22;21725;50.836;4.368;2023-01-13T22:21:03;9.40;99.90
35603;DHT22;21725;50.836;4.368;2023-01-13T22:24:32;9.80;99.90
35603;DHT22;21725;50.836;4.368;2023-01-13T22:28:15;9.70;99.90
35603;DHT22;21725;50.836;4.368;2023-01-13T22:35:25;9.60;99.90
35603;DHT22;21725;50.836;4.368;2023-01-13T22:43:28;9.60;99.90
35603;DHT22;21725;50.836;4.368;2023-01-13T22:47:11;10.10;99.90
35603;DHT22;21725;50.836;4.368;2023-01-13T22:50:14;10.30;99.90
35603;DHT22;21725;50.836;4.368;2023-01-13T22:54:00;9.20;99.90
35603;DHT22;21725;50.836;4.368;2023-01-13T22:57:36;10.00;99.90
